Time;durP1;ratioP1;P1;durP2;ratioP2;P2;SDS_P1;SDS_P2;PMS_P1;PMS_P2;Temp;Humidity;BMP_temperature;BMP_pressure;BME280_temperature;BME280_humidity;BME280_pressure;Samples;Min_cycle;Max_cycle;Signal;HPM_P1;HPM_P2
2021/08/08 00:02:13;;;;;;;8.45;3.80;;;;;;;;;;5006913;28;20032;-58
2021/08/08 00:04:39;;;;;;;7.47;3.92;;;;;;;;;;5007267;28;20057;-56
2021/08/08 00:07:05;;;;;;;9.15;3.92;;;;;;;;;;5008119;28;20128;-54
2021/08/08 00:09:31;;;;;;;12.70;4.22;;;;;;;;;;5005923;28;20046;-55
2021/08/08 00:11:56;;;;;;;8.15;4.57;;;;;;;;;;5006759;28;20045;-58
2021/08/08 00:14:23;;;;;;;7.53;3.97;;;;;;;;;;5006930;28;20037;-58
2021/08/08 00:16:49;;;;;;;8.50;3.90;;;;;;;;;;5007356;28;20045;-59
2021/08/08 00:19:15;;;;;;;9.18;3.70;;;;;;;;;;5007166;28;20108;-58
2021/08/08 00:21:40;;;;;;;11.13;4.05;;;;;;;;;;5006257;28;20073;-56
2021/08/08 00:24:06;;;;;;;10.82;4.93;;;;;;;;;;5007899;28;20048;-55
2021/08/08 00:26:32;;;;;;;10.00;4.45;;;;;;;;;;5007202;28;20089;-57
2021/08/08 00:28:58;;;;;;;11.73;4.53;;;;;;;;;;5005672;28;20038;-58
2021/08/08 00:31:24;;;;;;;12.55;4.60;;;;;;;;;;5006476;28;20042;-58
2021/08/08 00:33:53;;;;;;;8.07;4.38;;;;;;;;;;5007248;28;20045;-58
2021/08/08 00:36:19;;;;;;;9.50;3.90;;;;;;;;;;5006148;28;20552;-58
2021/08/08 00:38:45;;;;;;;8.07;4.20;;;;;;;;;;5006880;28;20430;-59
2021/08/08 00:41:11;;;;;;;8.32;4.30;;;;;;;;;;5008309;28;20056;-58
2021/08/08 00:43:37;;;;;;;8.05;3.95;;;;;;;;;;5005628;28;20069;-57
2021/08/08 00:46:03;;;;;;;6.20;3.67;;;;;;;;;;5007621;28;20041;-58
2021/08/08 00:48:29;;;;;;;13.68;4.38;;;;;;;;;;5005474;28;20045;-57
2021/08/08 00:50:55;;;;;;;7.85;4.40;;;;;;;;;;5005807;28;20050;-58
2021/08/08 00:53:21;;;;;;;9.60;4.03;;;;;;;;;;5005869;28;20045;-56
2021/08/08 00:55:47;;;;;;;7.47;4.45;;;;;;;;;;5006356;28;20046;-56
2021/08/08 00:58:13;;;;;;;10.10;4.30;;;;;;;;;;5006288;28;20041;-54
2021/08/08 01:00:39;;;;;;;8.65;4.72;;;;;;;;;;5005084;28;20060;-56
2021/08/08 01:03:06;;;;;;;8.20;4.68;;;;;;;;;;5006907;28;20045;-56
2021/08/08 01:05:41;;;;;;;9.15;4.38;;;;;;;;;;5006754;28;20103;-56
2021/08/08 01:08:08;;;;;;;8.70;4.47;;;;;;;;;;5006623;28;20156;-57
2021/08/08 01:10:34;;;;;;;7.32;4.07;;;;;;;;;;5004809;28;20046;-56
2021/08/08 01:13:01;;;;;;;8.75;4.60;;;;;;;;;;5005890;28;20048;-55
2021/08/08 01:15:27;;;;;;;8.50;4.45;;;;;;;;;;5005255;28;20037;-56
2021/08/08 01:17:53;;;;;;;8.80;4.40;;;;;;;;;;5005785;28;20042;-58
2021/08/08 01:20:19;;;;;;;9.57;4.65;;;;;;;;;;5006262;28;20713;-56
2021/08/08 01:22:48;;;;;;;9.85;4.68;;;;;;;;;;5006188;28;20038;-56
2021/08/08 01:25:14;;;;;;;8.82;4.03;;;;;;;;;;5004396;28;20129;-56
2021/08/08 01:27:40;;;;;;;10.25;4.68;;;;;;;;;;5004317;28;20046;-55
2021/08/08 01:30:08;;;;;;;8.90;4.88;;;;;;;;;;5007033;28;20061;-57
2021/08/08 01:32:34;;;;;;;8.63;4.90;;;;;;;;;;5005007;28;20033;-57
2021/08/08 01:35:00;;;;;;;7.65;4.75;;;;;;;;;;5005549;28;20034;-57
2021/08/08 01:37:28;;;;;;;7.55;4.25;;;;;;;;;;5004739;28;20052;-57
2021/08/08 01:40:06;;;;;;;7.68;4.20;;;;;;;;;;5005824;28;20069;-57
2021/08/08 01:42:33;;;;;;;9.40;4.20;;;;;;;;;;5004743;28;20124;-55
2021/08/08 01:45:01;;;;;;;9.93;4.63;;;;;;;;;;5007012;28;20037;-57
2021/08/08 01:47:29;;;;;;;13.75;4.45;;;;;;;;;;5004517;28;20936;-59
2021/08/08 01:49:55;;;;;;;8.43;4.40;;;;;;;;;;5005369;28;20528;-57
2021/08/08 01:52:21;;;;;;;8.95;4.50;;;;;;;;;;5004613;28;20108;-58
2021/08/08 01:54:47;;;;;;;8.43;4.50;;;;;;;;;;5006054;28;20043;-57
2021/08/08 01:57:13;;;;;;;7.50;3.58;;;;;;;;;;5006142;28;20057;-57
2021/08/08 01:59:39;;;;;;;13.73;5.00;;;;;;;;;;5006196;28;20172;-58
2021/08/08 02:02:23;;;;;;;10.15;4.60;;;;;;;;;;5006468;28;20182;-57
2021/08/08 02:04:49;;;;;;;7.50;3.67;;;;;;;;;;5005939;28;20243;-58
2021/08/08 02:07:18;;;;;;;8.15;4.38;;;;;;;;;;5005684;28;20049;-57
2021/08/08 02:09:44;;;;;;;6.38;3.58;;;;;;;;;;5005856;28;20467;-59
2021/08/08 02:12:10;;;;;;;8.25;4.43;;;;;;;;;;5004508;28;20045;-58
2021/08/08 02:14:36;;;;;;;7.80;4.18;;;;;;;;;;5002323;28;20060;-58
2021/08/08 02:17:02;;;;;;;7.75;4.05;;;;;;;;;;5005462;28;20890;-58
2021/08/08 02:19:29;;;;;;;7.55;3.90;;;;;;;;;;5005013;28;20041;-58
2021/08/08 02:21:55;;;;;;;7.38;4.13;;;;;;;;;;5006052;28;20041;-57
2021/08/08 02:24:21;;;;;;;8.88;5.03;;;;;;;;;;5003721;28;20045;-56
2021/08/08 02:26:47;;;;;;;9.02;5.13;;;;;;;;;;5006865;28;20458;-60
2021/08/08 02:29:13;;;;;;;7.82;4.35;;;;;;;;;;5004024;28;20080;-57
2021/08/08 02:31:40;;;;;;;13.98;4.55;;;;;;;;;;5003896;28;20054;-57
2021/08/08 02:34:06;;;;;;;10.93;4.88;;;;;;;;;;5004999;28;20057;-57
2021/08/08 02:36:32;;;;;;;9.63;4.43;;;;;;;;;;5005089;28;20040;-57
2021/08/08 02:38:58;;;;;;;9.27;4.60;;;;;;;;;;5005138;28;20037;-58
2021/08/08 02:41:24;;;;;;;8.15;4.40;;;;;;;;;;5004981;28;20858;-56
2021/08/08 02:43:49;;;;;;;8.73;4.55;;;;;;;;;;5004306;28;20042;-58
2021/08/08 02:46:15;;;;;;;9.07;4.85;;;;;;;;;;5004795;28;20037;-58
2021/08/08 02:48:41;;;;;;;7.80;4.82;;;;;;;;;;5004688;28;22099;-58
2021/08/08 02:51:07;;;;;;;9.27;4.35;;;;;;;;;;5007105;28;20050;-58
2021/08/08 02:53:32;;;;;;;9.38;4.40;;;;;;;;;;5008868;28;20048;-58
2021/08/08 02:55:58;;;;;;;9.48;4.97;;;;;;;;;;5010487;28;20056;-55
2021/08/08 02:58:24;;;;;;;9.13;4.82;;;;;;;;;;5008014;28;20911;-58
2021/08/08 03:00:50;;;;;;;9.13;4.65;;;;;;;;;;5008225;28;20038;-57
2021/08/08 03:03:16;;;;;;;11.70;5.20;;;;;;;;;;5007700;28;20406;-58
2021/08/08 03:05:42;;;;;;;10.38;5.18;;;;;;;;;;5008545;28;20092;-57
2021/08/08 03:08:08;;;;;;;8.43;5.07;;;;;;;;;;5007144;28;20038;-58
2021/08/08 03:10:34;;;;;;;8.82;5.13;;;;;;;;;;5006007;28;20049;-58
2021/08/08 03:12:59;;;;;;;9.43;5.20;;;;;;;;;;5006284;28;20045;-57
2021/08/08 03:15:25;;;;;;;11.13;5.35;;;;;;;;;;5005580;28;20039;-58
2021/08/08 03:17:51;;;;;;;9.23;5.03;;;;;;;;;;5007237;28;20096;-58
2021/08/08 03:20:20;;;;;;;10.48;5.60;;;;;;;;;;5008642;28;20073;-58
2021/08/08 03:22:46;;;;;;;9.68;5.10;;;;;;;;;;5003673;28;20041;-57
2021/08/08 03:25:11;;;;;;;10.75;5.35;;;;;;;;;;5004734;28;20795;-57
2021/08/08 03:27:37;;;;;;;10.13;4.88;;;;;;;;;;5003878;28;20053;-58
2021/08/08 03:30:04;;;;;;;11.02;5.13;;;;;;;;;;4987122;28;20125;-56
2021/08/08 03:32:30;;;;;;;8.77;5.07;;;;;;;;;;5003261;28;20042;-57
2021/08/08 03:34:56;;;;;;;12.50;5.55;;;;;;;;;;5004925;28;20056;-58
2021/08/08 03:37:21;;;;;;;9.52;4.85;;;;;;;;;;5004630;28;20486;-58
2021/08/08 03:39:47;;;;;;;9.05;5.25;;;;;;;;;;5006072;28;20636;-55
2021/08/08 03:42:13;;;;;;;8.38;5.15;;;;;;;;;;5006156;28;20037;-56
2021/08/08 03:44:39;;;;;;;21.35;5.55;;;;;;;;;;5003510;28;20494;-53
2021/08/08 03:47:04;;;;;;;10.43;5.10;;;;;;;;;;5005807;28;20038;-57
2021/08/08 03:49:30;;;;;;;11.45;6.38;;;;;;;;;;5004589;28;20073;-56
2021/08/08 03:51:56;;;;;;;9.45;4.40;;;;;;;;;;4989354;28;20046;-57
2021/08/08 03:54:22;;;;;;;10.75;5.15;;;;;;;;;;5003607;28;20045;-57
2021/08/08 03:56:47;;;;;;;9.43;5.07;;;;;;;;;;5006514;28;20508;-55
2021/08/08 03:59:13;;;;;;;10.85;5.25;;;;;;;;;;5006739;28;20078;-57
2021/08/08 04:01:39;;;;;;;14.73;5.97;;;;;;;;;;5006184;28;20550;-57
2021/08/08 04:04:05;;;;;;;9.32;4.55;;;;;;;;;;5005306;28;20049;-57
2021/08/08 04:06:31;;;;;;;8.13;4.75;;;;;;;;;;5005243;28;20170;-56
2021/08/08 04:08:56;;;;;;;8.15;4.47;;;;;;;;;;5005763;28;20479;-52
2021/08/08 04:11:22;;;;;;;10.95;5.65;;;;;;;;;;5004066;28;20228;-53
2021/08/08 04:13:48;;;;;;;9.32;4.97;;;;;;;;;;5003606;28;20133;-56
2021/08/08 04:16:14;;;;;;;10.43;5.25;;;;;;;;;;5003661;28;20046;-57
2021/08/08 04:18:40;;;;;;;9.50;5.10;;;;;;;;;;5003427;28;20147;-57
2021/08/08 04:21:05;;;;;;;10.00;5.30;;;;;;;;;;5005323;28;20497;-56
2021/08/08 04:23:31;;;;;;;10.88;5.25;;;;;;;;;;5002434;28;20045;-56
2021/08/08 04:25:57;;;;;;;9.00;4.80;;;;;;;;;;5002100;28;20491;-57
2021/08/08 04:28:23;;;;;;;10.20;4.93;;;;;;;;;;5001722;28;20037;-56
2021/08/08 04:30:48;;;;;;;9.23;4.88;;;;;;;;;;5002151;28;20046;-57
2021/08/08 04:33:14;;;;;;;8.20;5.05;;;;;;;;;;5002454;28;20045;-55
2021/08/08 04:35:40;;;;;;;11.43;5.30;;;;;;;;;;5002997;28;20033;-56
2021/08/08 04:38:06;;;;;;;9.00;4.82;;;;;;;;;;5003347;28;20042;-57
2021/08/08 04:40:32;;;;;;;9.68;4.95;;;;;;;;;;5003883;28;20045;-57
2021/08/08 04:42:59;;;;;;;8.90;4.82;;;;;;;;;;5004883;28;20343;-53
2021/08/08 04:45:25;;;;;;;9.70;5.03;;;;;;;;;;5003811;28;20065;-56
2021/08/08 04:47:51;;;;;;;10.73;5.45;;;;;;;;;;5004533;28;20108;-54
2021/08/08 04:50:17;;;;;;;10.32;5.38;;;;;;;;;;5003441;28;20048;-54
2021/08/08 04:52:45;;;;;;;12.18;5.05;;;;;;;;;;5004150;28;20052;-56
2021/08/08 04:55:11;;;;;;;9.55;5.85;;;;;;;;;;5003596;28;20038;-52
2021/08/08 04:57:37;;;;;;;10.70;5.47;;;;;;;;;;5003845;28;20783;-54
2021/08/08 05:00:04;;;;;;;15.13;6.75;;;;;;;;;;5005270;28;20053;-56
2021/08/08 05:02:30;;;;;;;12.98;6.22;;;;;;;;;;5005835;28;20041;-54
2021/08/08 05:04:56;;;;;;;10.93;5.90;;;;;;;;;;5005408;28;20108;-56
2021/08/08 05:07:22;;;;;;;10.10;5.90;;;;;;;;;;5004248;28;20052;-57
2021/08/08 05:09:47;;;;;;;12.93;5.53;;;;;;;;;;5002342;28;20033;-58
2021/08/08 05:12:13;;;;;;;22.00;10.15;;;;;;;;;;5003872;28;20140;-54
2021/08/08 05:14:39;;;;;;;19.58;5.85;;;;;;;;;;5002968;28;20061;-55
2021/08/08 05:17:05;;;;;;;10.50;5.55;;;;;;;;;;5004271;28;20450;-54
2021/08/08 05:19:31;;;;;;;12.77;6.22;;;;;;;;;;5004624;28;20040;-57
2021/08/08 05:21:57;;;;;;;12.65;6.03;;;;;;;;;;5004032;28;20030;-55
2021/08/08 05:24:23;;;;;;;11.77;5.70;;;;;;;;;;5003417;28;20174;-55
2021/08/08 05:26:48;;;;;;;13.75;6.40;;;;;;;;;;5004724;28;20041;-58
2021/08/08 05:29:14;;;;;;;13.40;5.97;;;;;;;;;;5005101;28;20053;-58
2021/08/08 05:31:40;;;;;;;14.10;6.25;;;;;;;;;;5003907;28;20045;-58
2021/08/08 05:34:07;;;;;;;11.85;6.15;;;;;;;;;;5004336;28;20042;-54
2021/08/08 05:36:32;;;;;;;13.57;7.00;;;;;;;;;;5004603;28;20040;-55
2021/08/08 05:39:00;;;;;;;11.50;6.35;;;;;;;;;;5004425;28;20073;-57
2021/08/08 05:41:26;;;;;;;10.35;6.32;;;;;;;;;;5003663;28;20042;-54
2021/08/08 05:43:52;;;;;;;15.68;7.05;;;;;;;;;;5004104;28;20100;-55
2021/08/08 05:46:18;;;;;;;12.48;6.47;;;;;;;;;;5004024;28;20042;-57
2021/08/08 05:48:44;;;;;;;13.85;6.38;;;;;;;;;;5003741;28;20038;-57
2021/08/08 05:51:10;;;;;;;18.38;6.93;;;;;;;;;;5006620;28;20124;-57
2021/08/08 05:53:35;;;;;;;15.88;7.88;;;;;;;;;;5002698;28;20091;-56
2021/08/08 05:56:01;;;;;;;13.80;6.85;;;;;;;;;;5003233;28;20060;-55
2021/08/08 05:58:27;;;;;;;12.38;6.57;;;;;;;;;;5005149;28;20037;-56
2021/08/08 06:00:53;;;;;;;9.15;5.70;;;;;;;;;;5004163;28;20084;-57
2021/08/08 06:03:18;;;;;;;11.65;5.80;;;;;;;;;;5003166;28;20041;-57
2021/08/08 06:05:44;;;;;;;9.75;5.15;;;;;;;;;;5005830;28;20498;-56
2021/08/08 06:08:10;;;;;;;9.93;4.80;;;;;;;;;;5004873;28;20034;-56
2021/08/08 06:10:37;;;;;;;12.57;4.55;;;;;;;;;;5001933;28;20101;-57
2021/08/08 06:13:03;;;;;;;8.75;4.60;;;;;;;;;;5003572;28;20041;-57
2021/08/08 06:15:29;;;;;;;10.10;4.53;;;;;;;;;;5003848;28;20049;-56
2021/08/08 06:17:55;;;;;;;15.95;4.43;;;;;;;;;;5003265;28;21965;-56
2021/08/08 06:20:21;;;;;;;10.15;3.65;;;;;;;;;;5002826;28;20037;-57
2021/08/08 06:22:47;;;;;;;9.27;3.78;;;;;;;;;;5004679;28;20049;-56
2021/08/08 06:25:13;;;;;;;6.93;3.17;;;;;;;;;;5005395;28;20064;-57
2021/08/08 06:27:38;;;;;;;6.53;3.30;;;;;;;;;;5005531;28;20498;-56
2021/08/08 06:30:04;;;;;;;14.10;3.30;;;;;;;;;;5008348;28;20045;-57
2021/08/08 06:32:30;;;;;;;8.00;3.20;;;;;;;;;;5006739;28;20080;-56
2021/08/08 06:34:56;;;;;;;5.20;2.63;;;;;;;;;;5007583;28;20045;-56
2021/08/08 06:37:22;;;;;;;6.75;3.13;;;;;;;;;;5007595;28;20577;-56
2021/08/08 06:39:47;;;;;;;7.15;3.08;;;;;;;;;;5007987;28;20167;-56
2021/08/08 06:42:13;;;;;;;5.30;2.35;;;;;;;;;;5007574;28;20037;-56
2021/08/08 06:44:39;;;;;;;6.70;3.05;;;;;;;;;;5007038;28;20192;-55
2021/08/08 06:47:05;;;;;;;5.78;2.60;;;;;;;;;;5007035;28;20041;-56
2021/08/08 06:49:30;;;;;;;6.28;2.83;;;;;;;;;;5008771;28;20103;-56
2021/08/08 06:51:56;;;;;;;9.80;2.85;;;;;;;;;;5006600;28;20085;-57
2021/08/08 06:54:23;;;;;;;6.05;2.83;;;;;;;;;;5005989;28;20409;-57
2021/08/08 06:56:48;;;;;;;4.55;2.30;;;;;;;;;;4996968;28;20164;-56
2021/08/08 06:59:14;;;;;;;5.43;2.20;;;;;;;;;;5006505;28;20453;-54
2021/08/08 07:01:40;;;;;;;6.82;2.47;;;;;;;;;;5006436;28;20504;-56
2021/08/08 07:04:06;;;;;;;5.15;2.55;;;;;;;;;;5006380;28;20534;-56
2021/08/08 07:06:32;;;;;;;9.45;2.58;;;;;;;;;;5005955;28;20037;-56
2021/08/08 07:08:57;;;;;;;4.95;2.03;;;;;;;;;;5006534;28;20576;-56
2021/08/08 07:11:23;;;;;;;4.88;2.00;;;;;;;;;;5006152;28;20072;-56
2021/08/08 07:13:49;;;;;;;4.90;1.52;;;;;;;;;;5006263;28;20046;-57
2021/08/08 07:16:15;;;;;;;5.63;2.08;;;;;;;;;;5006115;28;20045;-56
2021/08/08 07:18:43;;;;;;;7.57;1.92;;;;;;;;;;5006512;28;20070;-56
2021/08/08 07:21:09;;;;;;;4.55;1.95;;;;;;;;;;5006277;28;20141;-56
2021/08/08 07:23:35;;;;;;;7.18;1.90;;;;;;;;;;5006125;28;20038;-56
2021/08/08 07:26:01;;;;;;;6.35;1.85;;;;;;;;;;5006834;28;20384;-54
2021/08/08 07:28:27;;;;;;;6.78;1.70;;;;;;;;;;5004902;28;20037;-55
2021/08/08 07:30:53;;;;;;;8.20;1.55;;;;;;;;;;5007016;28;20159;-57
2021/08/08 07:33:19;;;;;;;4.90;1.40;;;;;;;;;;5006270;28;20486;-56
2021/08/08 07:35:45;;;;;;;4.53;1.50;;;;;;;;;;5007096;28;20046;-57
2021/08/08 07:38:11;;;;;;;3.53;1.40;;;;;;;;;;5006787;28;20045;-57
2021/08/08 07:40:37;;;;;;;4.00;1.35;;;;;;;;;;5006007;28;20045;-57
2021/08/08 07:43:04;;;;;;;4.28;1.20;;;;;;;;;;5006073;28;20410;-57
2021/08/08 07:45:30;;;;;;;6.70;1.85;;;;;;;;;;5005628;28;20037;-57
2021/08/08 07:47:56;;;;;;;3.63;1.20;;;;;;;;;;5006089;28;20038;-57
2021/08/08 07:50:21;;;;;;;7.75;1.60;;;;;;;;;;5006371;28;20388;-56
2021/08/08 07:52:47;;;;;;;3.15;1.08;;;;;;;;;;5005594;28;20053;-55
2021/08/08 07:55:13;;;;;;;2.50;1.00;;;;;;;;;;5007361;28;20502;-56
2021/08/08 07:57:39;;;;;;;3.13;1.20;;;;;;;;;;5006285;28;20042;-55
2021/08/08 08:00:05;;;;;;;3.92;1.38;;;;;;;;;;5006016;28;20516;-56
2021/08/08 08:02:31;;;;;;;3.28;1.00;;;;;;;;;;5005574;28;20140;-60
2021/08/08 08:04:57;;;;;;;3.03;1.10;;;;;;;;;;5005982;28;20041;-57
2021/08/08 08:07:22;;;;;;;3.75;1.13;;;;;;;;;;5005293;28;20053;-57
2021/08/08 08:09:48;;;;;;;3.75;0.88;;;;;;;;;;5005597;28;20041;-56
2021/08/08 08:12:14;;;;;;;10.80;1.33;;;;;;;;;;5005782;28;20050;-54
2021/08/08 08:14:40;;;;;;;3.05;1.05;;;;;;;;;;5005316;28;20026;-53
2021/08/08 08:17:06;;;;;;;5.32;0.90;;;;;;;;;;5005392;28;20119;-55
2021/08/08 08:19:31;;;;;;;3.65;1.00;;;;;;;;;;5005999;28;20037;-56
2021/08/08 08:21:57;;;;;;;2.70;0.98;;;;;;;;;;5006693;28;20041;-54
2021/08/08 08:24:23;;;;;;;2.65;0.80;;;;;;;;;;5004223;28;20099;-56
2021/08/08 08:26:49;;;;;;;4.15;1.15;;;;;;;;;;5006071;28;20778;-57
2021/08/08 08:29:14;;;;;;;2.70;0.90;;;;;;;;;;5004648;28;20034;-57
2021/08/08 08:31:40;;;;;;;2.92;0.98;;;;;;;;;;5003552;28;20126;-57
2021/08/08 08:34:06;;;;;;;6.00;0.85;;;;;;;;;;5004526;28;20116;-57
2021/08/08 08:36:32;;;;;;;3.65;0.90;;;;;;;;;;5004740;28;20042;-57
2021/08/08 08:38:58;;;;;;;1.95;0.70;;;;;;;;;;5006042;28;20042;-55
2021/08/08 08:41:33;;;;;;;4.10;0.90;;;;;;;;;;5004258;28;20068;-53
2021/08/08 08:44:00;;;;;;;3.25;0.90;;;;;;;;;;5003480;28;20149;-57
2021/08/08 08:46:26;;;;;;;2.58;0.90;;;;;;;;;;5000691;28;20046;-56
2021/08/08 08:48:53;;;;;;;4.40;1.02;;;;;;;;;;5001966;28;20045;-56
2021/08/08 08:51:20;;;;;;;2.55;0.73;;;;;;;;;;5001694;28;20419;-57
2021/08/08 08:53:46;;;;;;;2.38;0.70;;;;;;;;;;5003675;28;20198;-56
2021/08/08 08:56:13;;;;;;;2.40;0.75;;;;;;;;;;5004290;28;20037;-57
2021/08/08 08:58:39;;;;;;;4.05;0.93;;;;;;;;;;5004186;28;20037;-57
2021/08/08 09:01:05;;;;;;;3.75;1.00;;;;;;;;;;5002982;28;20068;-56
2021/08/08 09:03:31;;;;;;;6.95;1.00;;;;;;;;;;5003768;28;20144;-56
2021/08/08 09:05:56;;;;;;;2.85;0.70;;;;;;;;;;5006065;28;20044;-57
2021/08/08 09:08:22;;;;;;;3.53;0.85;;;;;;;;;;5003934;28;20096;-56
2021/08/08 09:11:04;;;;;;;2.15;0.70;;;;;;;;;;5004985;28;20054;-56
2021/08/08 09:13:30;;;;;;;4.22;0.70;;;;;;;;;;5004536;28;20410;-56
2021/08/08 09:15:56;;;;;;;2.13;0.70;;;;;;;;;;5005135;28;20041;-56
2021/08/08 09:18:22;;;;;;;1.98;0.65;;;;;;;;;;5005033;28;20044;-55
2021/08/08 09:20:49;;;;;;;1.63;0.60;;;;;;;;;;5005656;28;20048;-53
2021/08/08 09:23:15;;;;;;;2.40;0.77;;;;;;;;;;5006248;28;20403;-52
2021/08/08 09:25:54;;;;;;;2.85;0.80;;;;;;;;;;5004801;28;20052;-56
2021/08/08 09:28:23;;;;;;;2.50;0.73;;;;;;;;;;5003999;28;20103;-56
2021/08/08 09:30:50;;;;;;;3.47;0.63;;;;;;;;;;5004164;28;20104;-56
2021/08/08 09:33:16;;;;;;;2.42;0.60;;;;;;;;;;5004469;28;20048;-56
2021/08/08 09:35:42;;;;;;;2.40;0.60;;;;;;;;;;5004145;28;20050;-53
2021/08/08 09:38:10;;;;;;;2.78;0.90;;;;;;;;;;5005498;28;20044;-56
2021/08/08 09:40:37;;;;;;;3.08;0.80;;;;;;;;;;5004999;28;20136;-56
2021/08/08 09:43:05;;;;;;;2.85;0.75;;;;;;;;;;5003350;28;20123;-54
2021/08/08 09:45:34;;;;;;;2.95;0.70;;;;;;;;;;5004391;28;20499;-56
2021/08/08 09:48:00;;;;;;;2.42;0.70;;;;;;;;;;5004907;28;20632;-53
2021/08/08 09:50:28;;;;;;;2.92;0.95;;;;;;;;;;5004634;28;20049;-56
2021/08/08 09:53:16;;;;;;;3.38;0.98;;;;;;;;;;5005135;28;20168;-52
2021/08/08 09:55:42;;;;;;;3.78;0.80;;;;;;;;;;5004540;28;20072;-57
2021/08/08 09:58:11;;;;;;;2.10;0.75;;;;;;;;;;5006743;28;20141;-56
2021/08/08 10:00:38;;;;;;;4.47;0.77;;;;;;;;;;5008936;28;20533;-53
2021/08/08 10:03:04;;;;;;;2.13;0.70;;;;;;;;;;5007434;28;20475;-56
2021/08/08 10:05:34;;;;;;;3.42;0.70;;;;;;;;;;5008025;28;20034;-56
2021/08/08 10:08:04;;;;;;;1.95;0.65;;;;;;;;;;5008982;28;20034;-53
2021/08/08 10:10:32;;;;;;;1.63;0.60;;;;;;;;;;5008058;28;20417;-57
2021/08/08 10:13:13;;;;;;;2.60;0.90;;;;;;;;;;5008491;28;20037;-55
2021/08/08 10:15:43;;;;;;;2.08;0.70;;;;;;;;;;5007719;28;20042;-56
2021/08/08 10:18:13;;;;;;;2.25;0.75;;;;;;;;;;5008045;28;20029;-56
2021/08/08 10:20:40;;;;;;;3.88;0.73;;;;;;;;;;5006974;28;20040;-56
2021/08/08 10:23:06;;;;;;;2.00;0.60;;;;;;;;;;5007504;28;20042;-53
2021/08/08 10:25:32;;;;;;;2.33;0.80;;;;;;;;;;5008064;28;20064;-55
2021/08/08 10:27:58;;;;;;;3.58;0.85;;;;;;;;;;5008756;28;20099;-55
2021/08/08 10:30:24;;;;;;;3.22;0.70;;;;;;;;;;5006900;28;20978;-57
2021/08/08 10:32:50;;;;;;;3.00;0.82;;;;;;;;;;5007461;28;20087;-54
2021/08/08 10:35:17;;;;;;;1.52;0.63;;;;;;;;;;5008199;28;20492;-56
2021/08/08 10:37:43;;;;;;;2.70;0.90;;;;;;;;;;5006983;28;20048;-56
2021/08/08 10:40:09;;;;;;;2.50;0.85;;;;;;;;;;5008449;28;20394;-56
2021/08/08 10:42:41;;;;;;;2.05;0.60;;;;;;;;;;5007305;28;20030;-55
2021/08/08 10:45:07;;;;;;;2.60;0.85;;;;;;;;;;5006022;28;20037;-53
2021/08/08 10:47:34;;;;;;;3.78;0.88;;;;;;;;;;5004672;28;20151;-56
2021/08/08 10:50:14;;;;;;;2.60;0.80;;;;;;;;;;5006075;28;20048;-55
2021/08/08 10:52:44;;;;;;;3.78;0.93;;;;;;;;;;5006152;28;20065;-55
2021/08/08 10:55:27;;;;;;;2.88;0.75;;;;;;;;;;5007450;28;20077;-54
2021/08/08 10:57:53;;;;;;;2.42;0.73;;;;;;;;;;5005289;28;20038;-56
2021/08/08 11:00:19;;;;;;;2.15;0.73;;;;;;;;;;5005747;28;20037;-55
2021/08/08 11:02:46;;;;;;;2.05;0.60;;;;;;;;;;5005158;28;20123;-55
2021/08/08 11:05:16;;;;;;;4.05;0.90;;;;;;;;;;5006535;28;20045;-56
2021/08/08 11:07:43;;;;;;;1.92;0.70;;;;;;;;;;5004645;28;20129;-56
2021/08/08 11:10:10;;;;;;;4.97;0.80;;;;;;;;;;5004715;28;20099;-53
2021/08/08 11:12:40;;;;;;;2.17;0.60;;;;;;;;;;5003932;28;20049;-54
2021/08/08 11:15:07;;;;;;;1.50;0.60;;;;;;;;;;5005471;28;20107;-54
2021/08/08 11:17:32;;;;;;;1.98;0.60;;;;;;;;;;5005369;28;20054;-56
2021/08/08 11:20:00;;;;;;;2.60;0.80;;;;;;;;;;5005474;28;20053;-56
2021/08/08 11:22:26;;;;;;;3.90;0.80;;;;;;;;;;5006953;28;20310;-55
2021/08/08 11:24:59;;;;;;;2.80;0.98;;;;;;;;;;5005631;28;20116;-55
2021/08/08 11:27:29;;;;;;;3.28;0.95;;;;;;;;;;5004227;28;20097;-56
2021/08/08 11:29:56;;;;;;;4.05;0.98;;;;;;;;;;5006283;28;20037;-56
2021/08/08 11:32:26;;;;;;;2.20;0.60;;;;;;;;;;5004755;28;20111;-54
2021/08/08 11:35:00;;;;;;;2.17;0.73;;;;;;;;;;5006990;28;20060;-56
2021/08/08 11:37:34;;;;;;;2.30;0.70;;;;;;;;;;5005841;28;20147;-55
2021/08/08 11:40:00;;;;;;;2.40;0.70;;;;;;;;;;5003923;28;20041;-54
2021/08/08 11:42:30;;;;;;;3.50;0.75;;;;;;;;;;5003636;28;20193;-56
2021/08/08 11:44:56;;;;;;;6.00;0.70;;;;;;;;;;5005310;28;20517;-56
2021/08/08 11:47:26;;;;;;;2.13;0.70;;;;;;;;;;5004509;28;20100;-55
2021/08/08 11:49:52;;;;;;;3.20;0.93;;;;;;;;;;5005930;28;20107;-55
2021/08/08 11:52:19;;;;;;;2.50;0.80;;;;;;;;;;5004902;28;20061;-55
2021/08/08 11:54:58;;;;;;;6.63;0.80;;;;;;;;;;5006773;28;20034;-55
2021/08/08 11:57:25;;;;;;;2.83;0.68;;;;;;;;;;5004138;28;20100;-56
2021/08/08 11:59:51;;;;;;;2.60;0.80;;;;;;;;;;5004060;28;20061;-57
2021/08/08 12:02:20;;;;;;;1.70;0.60;;;;;;;;;;5004837;28;20136;-56
2021/08/08 12:04:46;;;;;;;2.35;0.80;;;;;;;;;;5004596;28;20695;-56
2021/08/08 12:07:12;;;;;;;3.47;0.77;;;;;;;;;;5005233;28;20041;-56
2021/08/08 12:09:45;;;;;;;2.17;0.80;;;;;;;;;;5002541;28;20165;-54
2021/08/08 12:12:11;;;;;;;4.45;0.85;;;;;;;;;;5003828;28;20061;-54
2021/08/08 12:14:41;;;;;;;2.28;0.70;;;;;;;;;;5004739;28;20041;-53
2021/08/08 12:17:09;;;;;;;2.40;0.80;;;;;;;;;;5003493;28;20153;-56
2021/08/08 12:19:36;;;;;;;2.72;0.80;;;;;;;;;;5005253;28;20041;-54
2021/08/08 12:22:22;;;;;;;3.38;0.90;;;;;;;;;;5003463;28;20052;-54
2021/08/08 12:24:49;;;;;;;4.43;0.88;;;;;;;;;;4947001;28;20035;-57
2021/08/08 12:27:17;;;;;;;2.38;0.80;;;;;;;;;;4947871;28;20051;-53
2021/08/08 12:29:43;;;;;;;2.35;0.82;;;;;;;;;;4947883;28;20057;-51
2021/08/08 12:32:10;;;;;;;4.63;0.80;;;;;;;;;;4946942;28;20121;-55
2021/08/08 12:34:37;;;;;;;1.63;0.63;;;;;;;;;;4948738;28;20035;-55
2021/08/08 12:37:07;;;;;;;2.13;0.70;;;;;;;;;;4948174;28;20138;-58
2021/08/08 12:39:33;;;;;;;2.00;0.60;;;;;;;;;;4947152;28;20099;-56
2021/08/08 12:41:59;;;;;;;5.80;0.85;;;;;;;;;;4946994;28;20318;-56
2021/08/08 12:44:32;;;;;;;3.13;0.90;;;;;;;;;;4946896;28;20616;-59
2021/08/08 12:47:05;;;;;;;2.28;0.88;;;;;;;;;;4948349;28;20979;-57
2021/08/08 12:49:33;;;;;;;3.20;0.88;;;;;;;;;;4945484;28;20052;-56
2021/08/08 12:51:59;;;;;;;5.13;1.00;;;;;;;;;;4947092;28;20051;-56
2021/08/08 12:54:25;;;;;;;2.95;0.77;;;;;;;;;;4949151;28;20039;-55
2021/08/08 12:56:50;;;;;;;4.45;0.85;;;;;;;;;;4998969;28;20065;-58
2021/08/08 12:59:16;;;;;;;2.38;0.82;;;;;;;;;;5005313;28;20071;-58
2021/08/08 13:01:43;;;;;;;2.28;0.70;;;;;;;;;;5004306;28;20069;-58
2021/08/08 13:04:09;;;;;;;3.92;0.80;;;;;;;;;;5005966;28;20041;-56
2021/08/08 13:06:34;;;;;;;1.95;0.50;;;;;;;;;;5005512;28;20038;-59
2021/08/08 13:09:00;;;;;;;2.88;0.80;;;;;;;;;;5005656;28;20731;-59
2021/08/08 13:11:26;;;;;;;2.63;0.90;;;;;;;;;;5004934;28;20073;-58
2021/08/08 13:13:52;;;;;;;3.38;0.70;;;;;;;;;;5006535;28;20033;-56
2021/08/08 13:16:18;;;;;;;2.72;0.82;;;;;;;;;;5004055;28;20049;-58
2021/08/08 13:18:43;;;;;;;4.47;0.60;;;;;;;;;;5006019;28;20068;-56
2021/08/08 13:21:13;;;;;;;3.42;1.00;;;;;;;;;;5005831;28;20159;-57
2021/08/08 13:23:39;;;;;;;5.22;1.00;;;;;;;;;;5003076;28;20391;-57
2021/08/08 13:26:05;;;;;;;3.25;1.00;;;;;;;;;;5003105;28;20694;-57
2021/08/08 13:28:31;;;;;;;6.13;1.00;;;;;;;;;;5003234;28;20041;-56
2021/08/08 13:30:57;;;;;;;3.25;0.90;;;;;;;;;;5002563;28;20134;-56
2021/08/08 13:33:23;;;;;;;2.90;0.80;;;;;;;;;;5002896;28;20145;-56
2021/08/08 13:35:49;;;;;;;2.22;0.82;;;;;;;;;;5004372;28;20410;-58
2021/08/08 13:38:15;;;;;;;3.13;0.82;;;;;;;;;;5005166;28;20604;-57
2021/08/08 13:40:41;;;;;;;3.50;0.90;;;;;;;;;;5003425;28;20042;-59
2021/08/08 13:43:07;;;;;;;3.28;0.80;;;;;;;;;;5005750;28;20045;-57
2021/08/08 13:45:33;;;;;;;3.00;0.80;;;;;;;;;;5004415;28;20092;-57
2021/08/08 13:47:58;;;;;;;3.00;1.00;;;;;;;;;;5004926;28;20099;-59
2021/08/08 13:50:24;;;;;;;2.63;0.80;;;;;;;;;;5003773;28;20060;-57
2021/08/08 13:52:50;;;;;;;2.90;0.85;;;;;;;;;;5004787;28;20034;-58
2021/08/08 13:55:20;;;;;;;4.18;0.80;;;;;;;;;;5005353;28;20048;-57
2021/08/08 13:57:49;;;;;;;1.92;0.60;;;;;;;;;;5004342;28;20046;-58
2021/08/08 14:00:15;;;;;;;2.45;0.80;;;;;;;;;;5003344;28;20038;-56
2021/08/08 14:02:41;;;;;;;2.70;0.80;;;;;;;;;;5004131;28;20407;-57
2021/08/08 14:05:08;;;;;;;2.60;0.80;;;;;;;;;;5002978;28;20642;-57
2021/08/08 14:07:34;;;;;;;3.00;0.80;;;;;;;;;;5002001;28;20038;-58
2021/08/08 14:09:59;;;;;;;3.05;0.70;;;;;;;;;;5002484;28;20042;-58
2021/08/08 14:12:25;;;;;;;6.05;0.90;;;;;;;;;;5001894;28;20091;-58
2021/08/08 14:14:51;;;;;;;2.92;0.80;;;;;;;;;;5003237;28;20030;-57
2021/08/08 14:17:17;;;;;;;2.75;0.65;;;;;;;;;;5001968;28;20111;-58
2021/08/08 14:19:42;;;;;;;1.80;0.63;;;;;;;;;;5000933;28;20085;-58
2021/08/08 14:22:08;;;;;;;4.43;0.75;;;;;;;;;;5002047;28;20037;-55
2021/08/08 14:24:34;;;;;;;3.17;0.77;;;;;;;;;;5001650;28;20040;-57
2021/08/08 14:27:00;;;;;;;3.53;0.70;;;;;;;;;;5005061;28;20526;-56
2021/08/08 14:29:26;;;;;;;1.83;0.60;;;;;;;;;;5003672;28;20041;-58
2021/08/08 14:31:52;;;;;;;2.35;0.65;;;;;;;;;;5003627;28;20072;-57
2021/08/08 14:34:18;;;;;;;2.40;0.70;;;;;;;;;;5003409;28;20658;-56
2021/08/08 14:36:43;;;;;;;3.03;0.65;;;;;;;;;;5004829;28;20124;-54
2021/08/08 14:39:09;;;;;;;4.63;0.70;;;;;;;;;;5002083;28;20502;-54